Time;durP1;ratioP1;P1;durP2;ratioP2;P2;SDS_P1;SDS_P2;PMS_P1;PMS_P2;Temp;Humidity;BMP_temperature;BMP_pressure;BME280_temperature;BME280_humidity;BME280_pressure;Samples;Min_cycle;Max_cycle;Signal;HPM_P1;HPM_P2
2022/08/19 00:00:44;;;;;;;18.17;15.60;;;20.90;99.90;;;;;;4937070;29;20280;-71
2022/08/19 00:03:10;;;;;;;16.50;14.23;;;20.90;99.90;;;;;;4943743;29;20227;-70
2022/08/19 00:05:35;;;;;;;18.63;16.13;;;20.90;99.90;;;;;;4946806;29;20552;-72
2022/08/19 00:08:01;;;;;;;16.20;13.93;;;20.90;99.90;;;;;;4952345;29;20268;-70
2022/08/19 00:10:27;;;;;;;15.67;14.07;;;20.90;99.90;;;;;;4952156;28;20196;-70
2022/08/19 00:12:52;;;;;;;18.70;14.80;;;20.90;99.90;;;;;;4952521;29;20476;-69
2022/08/19 00:15:20;;;;;;;17.40;15.43;;;20.90;99.90;;;;;;4952276;29;20185;-70
2022/08/19 00:17:46;;;;;;;20.57;15.67;;;20.90;99.90;;;;;;4942451;28;20546;-71
2022/08/19 00:20:17;;;;;;;18.73;14.77;;;20.80;99.90;;;;;;4954654;29;20443;-72
2022/08/19 00:22:44;;;;;;;18.43;14.83;;;20.80;99.90;;;;;;4952851;29;20460;-70
2022/08/19 00:25:11;;;;;;;15.33;13.73;;;20.90;99.90;;;;;;4954513;28;20442;-70
2022/08/19 00:27:37;;;;;;;22.03;15.57;;;20.90;99.90;;;;;;4954311;28;20443;-72
2022/08/19 00:30:04;;;;;;;17.30;14.60;;;20.90;99.90;;;;;;4954022;29;20536;-72
2022/08/19 00:32:30;;;;;;;19.90;16.37;;;20.90;99.90;;;;;;4946583;28;20236;-71
2022/08/19 00:34:56;;;;;;;19.73;15.87;;;20.90;99.90;;;;;;4953436;28;20436;-69
2022/08/19 00:37:25;;;;;;;18.77;16.00;;;20.90;99.90;;;;;;4952476;28;20243;-71
2022/08/19 00:39:51;;;;;;;16.93;14.20;;;20.80;99.90;;;;;;4953442;28;20440;-72
2022/08/19 00:42:17;;;;;;;17.60;14.40;;;20.80;99.90;;;;;;4951591;29;20460;-71
2022/08/19 00:44:43;;;;;;;18.60;15.83;;;20.80;99.90;;;;;;4952614;28;20184;-71
2022/08/19 00:47:09;;;;;;;19.50;14.70;;;20.80;99.90;;;;;;4951391;28;20483;-72
2022/08/19 00:49:50;;;;;;;18.00;16.20;;;20.80;99.90;;;;;;4936590;29;20512;-71
2022/08/19 00:52:38;;;;;;;19.10;16.07;;;20.80;99.90;;;;;;4951481;28;20212;-72
2022/08/19 00:55:10;;;;;;;16.87;14.60;;;20.80;99.90;;;;;;4952308;28;20929;-72
2022/08/19 00:57:40;;;;;;;18.27;15.90;;;20.70;99.90;;;;;;4950728;28;20440;-71
2022/08/19 02:30:49;;;;;;;25.30;19.83;;;20.40;99.90;;;;;;5973647;23;20434;-66
2022/08/19 02:33:14;;;;;;;26.80;19.87;;;20.40;99.90;;;;;;4940282;28;20821;-70
2022/08/19 02:35:47;;;;;;;22.77;18.87;;;20.40;99.90;;;;;;4951488;28;20439;-70
2022/08/19 02:38:25;;;;;;;26.07;19.90;;;20.40;99.90;;;;;;4950102;29;20187;-69
2022/08/19 02:40:55;;;;;;;25.77;19.50;;;20.40;99.90;;;;;;4951753;28;20431;-70
2022/08/19 02:43:21;;;;;;;23.13;19.30;;;20.40;99.90;;;;;;4940167;29;20440;-70
2022/08/19 02:45:48;;;;;;;26.43;18.90;;;20.30;99.90;;;;;;4952033;28;20418;-70
2022/08/19 02:48:17;;;;;;;30.17;21.80;;;20.30;99.90;;;;;;4939504;28;20523;-67
2022/08/19 02:50:42;;;;;;;29.10;19.60;;;20.30;99.90;;;;;;4950842;28;20436;-70
2022/08/19 02:53:08;;;;;;;26.40;20.40;;;20.30;99.90;;;;;;4936503;28;20508;-70
2022/08/19 02:55:34;;;;;;;24.80;19.93;;;20.30;99.90;;;;;;4932839;29;20722;-69
2022/08/19 02:58:00;;;;;;;31.77;21.43;;;20.30;99.90;;;;;;4933801;29;20209;-70
2022/08/19 03:00:26;;;;;;;25.87;21.10;;;20.20;99.90;;;;;;4948824;29;20467;-70
2022/08/19 03:02:52;;;;;;;29.13;21.63;;;20.20;99.90;;;;;;4929492;29;20205;-71
2022/08/19 03:05:17;;;;;;;27.93;20.90;;;20.10;99.90;;;;;;4930703;29;20448;-71
2022/08/19 03:07:43;;;;;;;25.63;21.40;;;20.20;99.90;;;;;;4930511;29;20424;-69
2022/08/19 03:10:09;;;;;;;33.43;24.70;;;20.10;99.90;;;;;;4934140;29;20268;-70
2022/08/19 03:12:37;;;;;;;26.27;21.93;;;20.10;99.90;;;;;;4931765;29;20193;-70
2022/08/19 03:15:07;;;;;;;24.13;20.67;;;20.00;99.90;;;;;;4929464;29;20193;-70
2022/08/19 03:17:34;;;;;;;31.50;23.60;;;20.00;99.90;;;;;;4930613;29;20488;-66
2022/08/19 03:20:00;;;;;;;27.47;22.73;;;20.00;99.90;;;;;;4930354;29;20444;-70
2022/08/19 03:22:26;;;;;;;26.70;21.70;;;19.90;99.90;;;;;;4934013;29;20436;-70
2022/08/19 03:24:51;;;;;;;28.23;22.20;;;19.90;99.90;;;;;;4932393;29;20786;-71
2022/08/19 03:27:17;;;;;;;31.40;21.83;;;19.90;99.90;;;;;;4935624;29;20433;-69
2022/08/19 03:29:43;;;;;;;29.50;24.00;;;19.90;99.90;;;;;;4937021;29;20674;-69
2022/08/19 03:32:09;;;;;;;34.33;25.97;;;19.90;99.90;;;;;;4928469;29;20214;-69
2022/08/19 03:34:37;;;;;;;31.17;24.10;;;19.80;99.90;;;;;;4939943;29;20563;-69
2022/08/19 03:37:08;;;;;;;32.27;26.07;;;19.80;99.90;;;;;;4935635;29;20496;-71
2022/08/19 03:39:35;;;;;;;32.53;25.43;;;19.70;99.90;;;;;;4934037;29;20956;-70
2022/08/19 03:42:02;;;;;;;33.23;26.53;;;19.70;99.90;;;;;;4933575;29;20456;-70
2022/08/19 03:44:29;;;;;;;32.83;26.20;;;19.60;99.90;;;;;;4933803;29;20433;-71
2022/08/19 03:46:57;;;;;;;32.13;25.57;;;19.60;99.90;;;;;;4928374;29;20452;-69
2022/08/19 03:49:26;;;;;;;33.37;25.30;;;19.60;99.90;;;;;;4936367;29;20437;-71
2022/08/19 03:51:52;;;;;;;36.37;27.10;;;19.60;99.90;;;;;;4928747;29;20441;-70
2022/08/19 03:54:22;;;;;;;36.87;25.53;;;19.60;99.90;;;;;;4935615;29;21034;-70
2022/08/19 03:56:49;;;;;;;31.00;25.10;;;19.60;99.90;;;;;;4931650;29;20178;-71
2022/08/19 03:59:30;;;;;;;31.03;25.27;;;19.50;99.90;;;;;;4935075;29;20841;-69
2022/08/19 04:01:58;;;;;;;32.00;24.57;;;19.50;99.90;;;;;;4932485;29;20464;-71
2022/08/19 04:04:24;;;;;;;34.90;25.57;;;19.50;99.90;;;;;;4947394;29;20464;-71
2022/08/19 04:06:51;;;;;;;32.27;24.80;;;19.50;99.90;;;;;;4938653;28;20473;-71
2022/08/19 04:09:18;;;;;;;32.10;25.40;;;19.50;99.90;;;;;;4935426;29;20654;-69
2022/08/19 04:11:49;;;;;;;31.10;25.03;;;19.50;99.90;;;;;;4933296;29;20515;-70
2022/08/19 04:14:18;;;;;;;31.53;26.30;;;19.50;99.90;;;;;;4945988;29;20559;-71
2022/08/19 04:16:46;;;;;;;32.83;25.97;;;19.60;99.90;;;;;;4941318;28;20481;-71
2022/08/19 04:19:12;;;;;;;32.53;25.50;;;19.50;99.90;;;;;;4934473;29;20459;-72
2022/08/19 04:21:37;;;;;;;31.97;26.07;;;19.50;99.90;;;;;;4932507;29;20449;-71
2022/08/19 04:24:04;;;;;;;28.83;24.50;;;19.60;99.90;;;;;;4947892;29;20428;-72
2022/08/19 04:26:33;;;;;;;36.07;25.70;;;19.60;99.90;;;;;;4950434;28;20517;-72
2022/08/19 04:29:05;;;;;;;33.40;25.40;;;19.60;99.90;;;;;;4933535;29;20437;-71
2022/08/19 04:31:34;;;;;;;33.53;26.60;;;19.60;99.90;;;;;;4932436;29;20479;-72
2022/08/19 04:34:02;;;;;;;34.63;26.23;;;19.60;99.90;;;;;;4927756;29;20519;-71
2022/08/19 04:36:31;;;;;;;34.40;27.27;;;19.70;99.90;;;;;;4935213;29;20496;-72
2022/08/19 04:38:59;;;;;;;34.77;27.17;;;19.70;99.90;;;;;;4931009;29;20441;-72
2022/08/19 04:44:10;;;;;;;32.47;24.73;;;19.70;99.90;;;;;;4934009;29;20976;-72
2022/08/19 04:46:36;;;;;;;34.97;27.00;;;19.70;99.90;;;;;;4934469;29;20433;-72
2022/08/19 04:49:04;;;;;;;33.37;26.80;;;19.70;99.90;;;;;;4930847;29;20921;-72
2022/08/19 04:51:32;;;;;;;30.97;26.80;;;19.80;99.90;;;;;;4940068;29;20205;-73
2022/08/19 04:53:59;;;;;;;33.63;26.23;;;19.70;99.90;;;;;;4938933;28;20563;-72
2022/08/19 04:56:26;;;;;;;39.97;26.50;;;19.70;99.90;;;;;;4934970;29;20436;-72
2022/08/19 04:58:52;;;;;;;37.20;27.20;;;19.80;99.90;;;;;;4931566;29;20925;-72
2022/08/19 05:01:21;;;;;;;34.60;25.90;;;19.80;99.90;;;;;;4935763;29;20532;-71
2022/08/19 05:03:47;;;;;;;30.77;25.90;;;19.70;99.90;;;;;;4930154;29;20441;-71
2022/08/19 05:06:14;;;;;;;37.80;27.87;;;19.80;99.90;;;;;;4934895;29;20439;-70
2022/08/19 05:08:42;;;;;;;32.90;25.30;;;19.80;99.90;;;;;;4932551;29;20173;-71
2022/08/19 05:11:25;;;;;;;32.53;28.23;;;19.80;99.90;;;;;;4939238;29;20542;-72
2022/08/19 05:13:51;;;;;;;29.63;25.27;;;19.80;99.90;;;;;;4943658;28;20473;-72
2022/08/19 05:16:19;;;;;;;36.20;27.10;;;19.70;99.90;;;;;;4942719;29;21019;-72
2022/08/19 05:24:17;;;;;;;30.57;25.70;;;19.80;99.90;;;;;;4929868;29;20469;-71
2022/08/19 05:26:46;;;;;;;30.10;26.80;;;19.80;99.90;;;;;;4929894;29;20421;-71
2022/08/19 05:29:14;;;;;;;32.70;25.90;;;19.80;99.90;;;;;;4931947;29;20405;-72
2022/08/19 05:31:39;;;;;;;30.87;26.47;;;19.80;99.90;;;;;;4925495;29;20881;-72
2022/08/19 05:34:05;;;;;;;31.57;25.63;;;19.90;99.90;;;;;;4931242;29;20472;-72
2022/08/19 05:36:44;;;;;;;38.43;26.90;;;19.90;99.90;;;;;;4930843;29;20545;-72
2022/08/19 05:39:14;;;;;;;37.00;26.27;;;19.90;99.90;;;;;;4946612;29;20424;-72
2022/08/19 05:41:49;;;;;;;30.50;26.50;;;20.00;99.90;;;;;;4930395;28;20485;-71
2022/08/19 05:44:17;;;;;;;31.10;26.20;;;20.00;99.90;;;;;;4932581;29;20860;-72
2022/08/19 05:46:46;;;;;;;30.27;24.97;;;20.00;99.90;;;;;;4944959;29;20440;-71
2022/08/19 05:49:13;;;;;;;35.13;27.47;;;20.00;99.90;;;;;;4933961;28;20441;-71
2022/08/19 05:51:39;;;;;;;39.40;31.57;;;20.00;99.90;;;;;;4929486;29;20457;-70
2022/08/19 05:54:06;;;;;;;34.53;27.80;;;20.00;99.90;;;;;;4936823;29;20487;-71
2022/08/19 05:56:37;;;;;;;32.27;28.47;;;20.00;99.90;;;;;;4931352;29;20371;-72
2022/08/19 05:59:07;;;;;;;35.40;27.80;;;20.00;99.90;;;;;;4933776;29;20500;-71
2022/08/19 06:01:32;;;;;;;30.87;25.17;;;20.00;99.90;;;;;;4931011;29;21013;-72
2022/08/19 06:03:58;;;;;;;28.90;24.10;;;20.00;99.90;;;;;;4926468;29;20491;-73
2022/08/19 06:06:23;;;;;;;36.80;28.87;;;20.00;99.90;;;;;;4938218;29;20224;-73
2022/08/19 06:08:50;;;;;;;34.93;27.87;;;20.00;99.90;;;;;;4933414;29;20511;-72
2022/08/19 06:11:18;;;;;;;30.63;25.17;;;20.00;99.90;;;;;;4938928;29;20598;-71
2022/08/19 06:13:46;;;;;;;37.70;26.67;;;20.00;99.90;;;;;;4930367;29;20938;-72
2022/08/19 06:16:12;;;;;;;38.03;26.40;;;20.00;99.90;;;;;;4965027;28;21005;-72
2022/08/19 06:18:38;;;;;;;34.10;25.30;;;20.10;99.90;;;;;;4927942;29;20444;-71
2022/08/19 06:21:04;;;;;;;33.27;26.10;;;20.10;99.90;;;;;;4931450;29;20538;-72
2022/08/19 06:23:30;;;;;;;31.90;25.50;;;20.10;99.90;;;;;;4925763;29;20241;-72
2022/08/19 06:25:55;;;;;;;35.20;25.20;;;20.10;99.90;;;;;;4948147;29;20424;-72
2022/08/19 06:28:23;;;;;;;36.13;25.90;;;20.10;99.90;;;;;;4937979;29;20436;-72
2022/08/19 06:30:49;;;;;;;35.23;25.90;;;20.10;99.90;;;;;;4932176;29;20185;-72
2022/08/19 06:33:15;;;;;;;31.40;24.87;;;20.10;99.90;;;;;;4924254;29;20465;-71
2022/08/19 06:35:41;;;;;;;30.60;25.40;;;20.10;99.90;;;;;;4944803;29;20913;-71
2022/08/19 06:38:06;;;;;;;28.60;23.60;;;20.10;99.90;;;;;;4934355;29;20542;-72
2022/08/19 06:40:32;;;;;;;31.50;26.33;;;20.10;99.90;;;;;;4943432;29;20184;-70
2022/08/19 06:42:59;;;;;;;34.83;26.50;;;20.20;99.90;;;;;;4944330;29;20194;-72
2022/08/19 06:45:25;;;;;;;30.73;25.70;;;20.20;99.90;;;;;;4941599;29;20188;-71
2022/08/19 06:47:54;;;;;;;34.37;26.90;;;20.20;99.90;;;;;;4935362;29;20429;-71
2022/08/19 06:50:19;;;;;;;32.70;27.07;;;20.10;99.90;;;;;;4932396;29;20488;-69
2022/08/19 06:52:45;;;;;;;31.57;25.90;;;20.00;99.90;;;;;;4943452;29;20522;-71
2022/08/19 06:55:11;;;;;;;33.83;25.90;;;20.00;99.90;;;;;;4932650;29;20188;-72
2022/08/19 06:57:36;;;;;;;32.93;25.57;;;20.00;99.90;;;;;;4936281;29;20421;-72
2022/08/19 07:00:04;;;;;;;33.40;27.77;;;19.90;99.90;;;;;;4934769;29;20538;-72
2022/08/19 07:02:30;;;;;;;34.87;28.27;;;19.90;99.90;;;;;;4934206;29;20201;-72
2022/08/19 07:04:57;;;;;;;35.70;27.33;;;19.90;99.90;;;;;;4934438;29;20937;-71
2022/08/19 07:07:23;;;;;;;35.83;27.90;;;19.90;99.90;;;;;;4939063;29;20185;-72
2022/08/19 07:09:52;;;;;;;32.77;26.27;;;19.80;99.90;;;;;;4935564;28;20952;-72
2022/08/19 07:12:18;;;;;;;35.10;27.50;;;19.80;99.90;;;;;;4936667;29;20209;-72
2022/08/19 07:14:45;;;;;;;34.10;26.83;;;19.80;99.90;;;;;;4943950;29;20826;-72
2022/08/19 07:17:11;;;;;;;37.33;26.63;;;19.80;99.90;;;;;;4934478;29;20182;-71
2022/08/19 07:19:39;;;;;;;33.43;26.00;;;19.80;99.90;;;;;;4933018;29;20434;-72
2022/08/19 07:22:07;;;;;;;29.67;25.70;;;19.80;99.90;;;;;;4935266;29;20429;-72
2022/08/19 07:24:33;;;;;;;28.70;24.90;;;19.80;99.90;;;;;;4934806;29;20448;-70
2022/08/19 07:27:02;;;;;;;28.90;25.50;;;19.80;99.90;;;;;;4928108;29;20469;-72
2022/08/19 07:29:30;;;;;;;31.20;25.37;;;19.80;99.90;;;;;;4937201;29;20537;-72
2022/08/19 07:31:58;;;;;;;33.87;25.07;;;19.80;99.90;;;;;;4930981;29;20477;-71
2022/08/19 07:34:25;;;;;;;33.03;25.33;;;19.80;99.90;;;;;;4932148;29;20473;-72
2022/08/19 07:36:51;;;;;;;30.03;24.33;;;19.80;99.90;;;;;;4932589;29;20762;-72
2022/08/19 07:39:22;;;;;;;27.57;24.10;;;19.70;99.90;;;;;;4935922;29;20440;-71
2022/08/19 07:41:48;;;;;;;32.83;25.47;;;19.80;99.90;;;;;;4933209;29;20453;-72
2022/08/19 07:44:15;;;;;;;26.90;23.17;;;19.80;99.90;;;;;;4936007;29;20420;-69
2022/08/19 07:46:44;;;;;;;28.60;24.00;;;19.80;99.90;;;;;;4931726;29;20178;-71
2022/08/19 07:49:18;;;;;;;28.60;24.60;;;19.80;99.90;;;;;;4934566;29;20433;-71
2022/08/19 07:51:45;;;;;;;27.30;23.70;;;19.80;99.90;;;;;;4933279;29;20488;-70
2022/08/19 07:54:11;;;;;;;27.60;23.77;;;19.80;99.90;;;;;;4930206;29;20464;-72
2022/08/19 07:56:37;;;;;;;30.57;23.57;;;19.90;99.90;;;;;;4938368;29;20514;-71
2022/08/19 07:59:02;;;;;;;26.83;22.83;;;20.00;99.90;;;;;;4938812;28;20269;-71
2022/08/19 08:01:28;;;;;;;27.03;23.00;;;20.00;99.90;;;;;;4946612;29;20188;-71
2022/08/19 08:09:33;;;;;;;27.67;22.30;;;20.00;99.90;;;;;;4933941;29;20451;-72
2022/08/19 08:12:24;;;;;;;24.80;20.70;;;20.00;99.90;;;;;;4952859;28;20428;-71
2022/08/19 08:14:53;;;;;;;25.33;21.70;;;20.00;99.90;;;;;;4921483;29;20542;-72
2022/08/19 08:17:20;;;;;;;29.83;22.30;;;20.00;99.90;;;;;;4953421;28;20959;-72
2022/08/19 08:19:46;;;;;;;25.77;20.80;;;20.10;99.90;;;;;;4934611;29;20480;-72
2022/08/19 08:23:22;;;;;;;27.63;22.13;;;20.10;99.90;;;;;;4953130;29;20432;-72
2022/08/19 08:25:04;;;;;;;25.60;20.97;;;20.10;99.90;;;;;;4936407;29;20192;-72
2022/08/19 08:27:30;;;;;;;33.63;24.30;;;20.20;99.90;;;;;;4954213;28;20413;-72
2022/08/19 08:29:57;;;;;;;28.23;21.80;;;20.30;99.90;;;;;;4936790;29;20647;-72
2022/08/19 08:32:22;;;;;;;27.30;22.10;;;20.30;99.90;;;;;;4943347;28;20469;-72
2022/08/19 08:34:48;;;;;;;26.40;21.37;;;20.30;99.90;;;;;;4934675;29;20472;-70
2022/08/19 08:37:14;;;;;;;26.67;21.77;;;20.30;99.90;;;;;;4952642;29;20180;-71
2022/08/19 08:39:39;;;;;;;27.80;20.87;;;20.20;99.90;;;;;;4936611;28;20210;-71
2022/08/19 08:42:13;;;;;;;30.77;22.23;;;20.30;99.90;;;;;;4931143;29;20301;-72
2022/08/19 08:44:50;;;;;;;24.60;20.90;;;20.30;99.90;;;;;;4932809;29;20179;-72
2022/08/19 08:47:20;;;;;;;31.80;23.40;;;20.30;99.90;;;;;;4952186;29;20416;-72
2022/08/19 08:49:53;;;;;;;27.13;21.90;;;20.30;99.90;;;;;;4931561;29;20433;-72
2022/08/19 08:52:23;;;;;;;28.70;23.80;;;20.20;99.90;;;;;;4938621;29;20568;-72
2022/08/19 08:54:54;;;;;;;32.60;21.20;;;20.10;99.90;;;;;;4943046;28;20456;-72
2022/08/19 08:57:23;;;;;;;25.37;22.63;;;20.10;99.90;;;;;;4934009;29;20452;-71
2022/08/19 08:59:53;;;;;;;29.10;22.50;;;20.10;99.90;;;;;;4934434;29;20421;-71
2022/08/19 09:02:19;;;;;;;27.53;22.67;;;20.10;99.90;;;;;;4932010;29;20543;-72
2022/08/19 09:04:45;;;;;;;25.33;20.50;;;20.10;99.90;;;;;;4932401;29;21042;-72
2022/08/19 09:07:34;;;;;;;29.80;22.33;;;20.10;99.90;;;;;;4935626;29;20437;-73
2022/08/19 09:10:36;;;;;;;27.63;22.03;;;20.10;99.90;;;;;;4951944;29;20239;-72
2022/08/19 09:13:41;;;;;;;32.60;21.57;;;20.10;99.90;;;;;;4924480;29;20437;-72
2022/08/19 09:16:12;;;;;;;25.40;19.80;;;20.20;99.90;;;;;;4928934;29;20433;-72
2022/08/19 09:18:54;;;;;;;23.13;19.97;;;20.30;99.90;;;;;;4925206;29;20429;-72
2022/08/19 09:21:22;;;;;;;24.13;20.93;;;20.30;99.90;;;;;;4933170;29;20437;-72
2022/08/19 09:23:49;;;;;;;24.27;19.67;;;20.40;99.90;;;;;;4924181;29;20443;-72
2022/08/19 09:26:17;;;;;;;22.40;19.27;;;20.50;99.90;;;;;;4934216;29;20436;-73
2022/08/19 09:28:45;;;;;;;24.33;17.90;;;20.60;99.90;;;;;;4930808;29;20437;-73
2022/08/19 09:31:17;;;;;;;20.73;18.53;;;20.80;99.90;;;;;;4933170;29;20461;-72
2022/08/19 09:33:43;;;;;;;22.30;17.97;;;20.80;99.90;;;;;;4924097;29;20468;-73
2022/08/19 09:36:11;;;;;;;20.73;18.53;;;20.90;99.90;;;;;;4934049;29;20417;-72
2022/08/19 09:38:41;;;;;;;20.40;18.17;;;21.00;99.90;;;;;;4929780;29;20186;-69
2022/08/19 09:41:11;;;;;;;19.30;17.17;;;21.10;99.90;;;;;;4938257;29;20453;-72
2022/08/19 09:43:36;;;;;;;20.03;17.47;;;21.20;99.90;;;;;;4937904;29;20539;-72
2022/08/19 09:46:05;;;;;;;19.70;17.60;;;21.20;99.90;;;;;;4946015;29;20439;-72
2022/08/19 09:48:32;;;;;;;22.87;18.27;;;21.30;99.90;;;;;;4934406;28;20660;-72
2022/08/19 09:51:26;;;;;;;20.73;16.73;;;21.40;99.90;;;;;;4944123;29;20523;-72
2022/08/19 09:53:53;;;;;;;22.60;17.07;;;21.40;99.90;;;;;;4933114;28;21068;-72
2022/08/19 09:56:20;;;;;;;18.43;16.50;;;21.50;99.90;;;;;;4937270;28;20579;-72
2022/08/19 09:58:47;;;;;;;24.13;19.60;;;21.40;99.90;;;;;;4932465;29;20913;-72
2022/08/19 10:01:27;;;;;;;18.80;16.80;;;21.50;99.90;;;;;;4942637;29;20472;-70
2022/08/19 10:03:56;;;;;;;19.10;16.53;;;21.40;99.90;;;;;;4935718;28;20457;-71
2022/08/19 10:06:25;;;;;;;22.80;17.10;;;21.40;99.90;;;;;;4934669;29;20440;-74
2022/08/19 10:08:52;;;;;;;24.50;15.53;;;21.50;99.90;;;;;;4933773;29;20910;-72
2022/08/19 10:11:19;;;;;;;18.40;16.43;;;21.40;99.90;;;;;;4935405;29;20468;-72
2022/08/19 10:13:46;;;;;;;21.00;17.27;;;21.50;99.90;;;;;;4913954;29;20818;-72
2022/08/19 10:16:15;;;;;;;17.50;15.83;;;21.50;99.90;;;;;;4921917;29;20427;-72
2022/08/19 10:18:43;;;;;;;24.13;15.37;;;21.50;99.90;;;;;;4925701;28;20465;-72
2022/08/19 10:21:15;;;;;;;17.83;14.50;;;21.60;99.90;;;;;;4933475;29;20467;-72
2022/08/19 10:23:44;;;;;;;23.20;15.50;;;21.70;99.90;;;;;;4913739;29;20429;-70
2022/08/19 10:26:15;;;;;;;19.13;14.20;;;21.70;99.90;;;;;;4936110;29;20404;-71
2022/08/19 10:28:41;;;;;;;22.03;14.70;;;21.80;99.90;;;;;;4924789;29;20445;-72
2022/08/19 10:31:08;;;;;;;15.40;13.70;;;21.90;99.90;;;;;;4937916;29;20876;-73
2022/08/19 10:33:36;;;;;;;14.80;12.57;;;22.00;99.90;;;;;;4921851;28;20211;-71
2022/08/19 10:36:08;;;;;;;21.83;14.10;;;22.10;99.90;;;;;;4932510;29;20428;-73
2022/08/19 10:38:34;;;;;;;17.30;15.07;;;22.10;99.90;;;;;;4925618;29;20436;-70
2022/08/19 10:41:08;;;;;;;15.63;14.00;;;22.20;99.90;;;;;;4937655;29;20444;-73
2022/08/19 10:43:36;;;;;;;18.73;12.20;;;22.20;99.90;;;;;;4938531;28;20176;-70
2022/08/19 10:46:03;;;;;;;17.23;12.93;;;22.30;99.90;;;;;;4941006;29;20921;-73
2022/08/19 10:48:29;;;;;;;14.10;12.43;;;22.40;99.90;;;;;;4942312;29;20841;-72
2022/08/19 10:53:40;;;;;;;17.90;12.83;;;22.70;99.90;;;;;;4943672;29;20231;-73
2022/08/19 10:58:50;;;;;;;13.60;11.17;;;22.60;99.90;;;;;;4916202;29;20181;-72
2022/08/19 11:01:15;;;;;;;16.33;12.03;;;22.40;99.90;;;;;;4926218;29;20575;-72
2022/08/19 11:03:41;;;;;;;12.83;10.97;;;22.30;99.90;;;;;;4920794;29;20241;-72
2022/08/19 11:06:08;;;;;;;14.13;12.30;;;22.30;99.90;;;;;;4926681;29;20186;-72
2022/08/19 11:08:37;;;;;;;18.10;12.33;;;22.40;99.90;;;;;;4945130;28;20885;-69
2022/08/19 11:11:03;;;;;;;13.10;11.10;;;22.30;99.90;;;;;;4931048;28;20504;-69
2022/08/19 11:13:33;;;;;;;12.20;10.73;;;22.40;99.90;;;;;;4944219;29;20471;-72
2022/08/19 11:16:01;;;;;;;11.40;10.20;;;22.60;99.90;;;;;;4934060;29;20527;-72
2022/08/19 11:18:28;;;;;;;20.37;11.03;;;22.70;99.90;;;;;;4942458;28;20448;-72
2022/08/19 11:20:53;;;;;;;15.30;10.93;;;22.90;99.90;;;;;;4937092;29;20429;-72
2022/08/19 11:23:19;;;;;;;12.70;10.80;;;23.10;99.90;;;;;;4942203;29;20501;-73
2022/08/19 11:25:45;;;;;;;12.43;10.70;;;23.20;99.90;;;;;;4945270;29;20202;-73
2022/08/19 11:28:11;;;;;;;9.57;8.67;;;23.20;99.90;;;;;;4938655;29;20185;-73
2022/08/19 11:30:38;;;;;;;10.57;9.57;;;23.40;99.90;;;;;;4945374;29;20424;-72
2022/08/19 11:33:03;;;;;;;10.70;9.70;;;23.40;99.90;;;;;;4929591;28;20449;-74
2022/08/19 11:35:29;;;;;;;11.90;10.77;;;23.50;99.90;;;;;;4941697;29;20433;-72
2022/08/19 11:37:57;;;;;;;10.93;9.83;;;23.50;99.90;;;;;;4939389;29;20211;-72
2022/08/19 11:40:23;;;;;;;11.80;10.60;;;23.40;99.90;;;;;;4949546;29;20291;-71
2022/08/19 11:42:56;;;;;;;10.97;9.87;;;23.40;99.90;;;;;;4938382;28;20536;-73
2022/08/19 11:45:23;;;;;;;9.93;9.03;;;23.50;99.90;;;;;;4937952;29;20281;-72
2022/08/19 11:47:49;;;;;;;10.97;10.00;;;23.50;99.90;;;;;;4930014;29;20538;-72
2022/08/19 11:50:16;;;;;;;12.17;10.93;;;23.50;99.90;;;;;;4942740;29;20900;-72
2022/08/19 11:52:42;;;;;;;12.00;10.23;;;23.60;99.90;;;;;;4947806;29;20237;-73
2022/08/19 11:55:08;;;;;;;10.00;9.00;;;23.50;99.90;;;;;;4941692;29;20464;-72
2022/08/19 11:57:33;;;;;;;10.30;9.10;;;23.60;99.90;;;;;;4940712;28;20429;-71
2022/08/19 11:59:59;;;;;;;13.87;10.50;;;23.60;99.90;;;;;;4938195;29;20796;-72
2022/08/19 12:02:25;;;;;;;13.20;10.43;;;23.50;99.90;;;;;;4934887;29;20197;-71
2022/08/19 12:04:50;;;;;;;11.60;9.97;;;23.50;99.90;;;;;;4935380;29;20251;-71
2022/08/19 12:07:16;;;;;;;14.90;9.57;;;23.50;99.90;;;;;;4954185;28;20197;-72
2022/08/19 12:09:42;;;;;;;12.43;9.40;;;23.60;99.90;;;;;;4945041;29;20764;-73
2022/08/19 12:12:08;;;;;;;12.53;11.33;;;23.50;99.90;;;;;;4952565;28;20440;-73
2022/08/19 12:14:34;;;;;;;11.47;9.10;;;23.60;99.90;;;;;;4934146;29;20213;-73
2022/08/19 12:16:59;;;;;;;12.97;9.67;;;23.60;99.90;;;;;;4936208;28;20452;-72
2022/08/19 12:19:25;;;;;;;9.97;9.17;;;23.70;99.90;;;;;;4931566;29;20177;-73
2022/08/19 12:21:52;;;;;;;18.13;10.07;;;23.80;99.90;;;;;;4935732;29;20212;-72
2022/08/19 12:24:22;;;;;;;16.43;9.40;;;23.70;99.90;;;;;;4953586;28;20260;-73
2022/08/19 12:26:48;;;;;;;13.77;10.47;;;23.70;99.90;;;;;;4933337;29;20524;-73
2022/08/19 12:29:15;;;;;;;12.37;9.40;;;23.70;99.90;;;;;;4934996;29;20413;-73
2022/08/19 12:31:40;;;;;;;9.40;8.60;;;23.60;99.90;;;;;;4940999;29;20547;-72
2022/08/19 12:34:07;;;;;;;10.47;8.57;;;23.60;99.90;;;;;;4929996;29;20567;-73
2022/08/19 12:36:32;;;;;;;12.40;10.50;;;23.60;99.90;;;;;;4936539;29;20178;-72
2022/08/19 12:38:59;;;;;;;10.37;8.50;;;23.50;99.90;;;;;;4946259;29;20837;-72
2022/08/19 12:41:25;;;;;;;14.27;9.60;;;23.50;99.90;;;;;;4946271;29;20232;-72
2022/08/19 12:43:51;;;;;;;15.23;9.50;;;23.40;99.90;;;;;;4936134;28;20417;-71
2022/08/19 12:46:18;;;;;;;10.90;9.90;;;23.50;99.90;;;;;;4942958;29;20199;-71
2022/08/19 12:48:45;;;;;;;10.57;9.27;;;23.60;99.90;;;;;;4927001;29;20185;-71
2022/08/19 12:51:14;;;;;;;11.00;9.43;;;23.60;99.90;;;;;;4946929;29;20447;-73
2022/08/19 12:53:40;;;;;;;13.63;9.40;;;23.80;99.90;;;;;;4935970;28;21021;-73
2022/08/19 12:56:08;;;;;;;10.10;9.13;;;24.00;99.90;;;;;;4948231;29;20431;-73
2022/08/19 12:58:34;;;;;;;8.47;7.67;;;24.10;99.90;;;;;;4930709;29;20450;-71
2022/08/19 13:01:05;;;;;;;9.20;8.30;;;24.20;99.90;;;;;;4932959;29;20499;-74
2022/08/19 13:03:30;;;;;;;9.03;8.13;;;24.20;99.90;;;;;;4931491;29;21126;-74
2022/08/19 13:05:56;;;;;;;10.10;8.00;;;24.10;99.90;;;;;;4952366;29;20467;-73
2022/08/19 13:08:22;;;;;;;9.33;7.20;;;24.10;99.90;;;;;;4949516;29;20189;-74
2022/08/19 13:10:48;;;;;;;10.20;7.27;;;24.10;99.90;;;;;;4930934;28;21266;-74
2022/08/19 13:13:13;;;;;;;9.00;8.30;;;24.00;99.90;;;;;;4938268;29;20291;-72
2022/08/19 13:15:41;;;;;;;10.43;9.10;;;23.90;99.90;;;;;;4943848;29;20191;-74
2022/08/19 13:18:08;;;;;;;9.83;8.13;;;23.80;99.90;;;;;;4948005;29;20308;-74
2022/08/19 13:20:35;;;;;;;18.17;10.10;;;23.80;99.90;;;;;;4937112;29;20531;-71
2022/08/19 13:23:01;;;;;;;16.23;12.47;;;23.80;99.90;;;;;;4952415;28;20412;-74
2022/08/19 13:25:27;;;;;;;13.77;11.00;;;23.70;99.90;;;;;;4933456;29;20842;-73
2022/08/19 13:27:52;;;;;;;12.47;11.13;;;23.60;99.90;;;;;;4939647;29;20211;-72
2022/08/19 13:33:10;;;;;;;17.17;12.97;;;23.60;99.90;;;;;;4934710;29;20223;-73
2022/08/19 13:35:36;;;;;;;17.53;13.70;;;23.40;99.90;;;;;;4931852;29;20440;-73
2022/08/19 13:38:04;;;;;;;19.83;15.20;;;23.30;99.90;;;;;;4945595;29;20419;-72
2022/08/19 13:40:31;;;;;;;23.57;16.57;;;23.20;99.90;;;;;;4937365;29;20425;-72
2022/08/19 13:42:57;;;;;;;23.93;17.17;;;22.90;99.90;;;;;;4937759;29;20456;-73
2022/08/19 13:45:25;;;;;;;26.60;17.90;;;22.70;99.90;;;;;;4944628;29;20471;-74
2022/08/19 13:47:53;;;;;;;21.77;17.40;;;22.50;99.90;;;;;;4944384;28;20428;-74
2022/08/19 13:50:25;;;;;;;25.77;21.17;;;22.40;99.90;;;;;;4932143;29;20507;-74
2022/08/19 13:52:52;;;;;;;29.10;24.70;;;22.40;99.90;;;;;;4934117;29;20461;-73
2022/08/19 13:55:17;;;;;;;29.10;24.30;;;22.20;99.90;;;;;;4941079;29;20519;-73
2022/08/19 13:57:43;;;;;;;33.60;24.93;;;22.00;99.90;;;;;;4931656;29;20449;-74
2022/08/19 14:00:17;;;;;;;34.17;27.47;;;21.80;99.90;;;;;;4933555;29;20165;-73
2022/08/19 14:02:44;;;;;;;34.60;27.80;;;21.60;99.90;;;;;;4931805;29;20472;-71
2022/08/19 14:05:13;;;;;;;34.60;29.70;;;21.50;99.90;;;;;;4927268;29;20445;-71
2022/08/19 14:07:39;;;;;;;34.20;26.13;;;21.50;99.90;;;;;;4938376;29;20415;-72
2022/08/19 14:10:07;;;;;;;37.60;30.10;;;21.40;99.90;;;;;;4932254;29;20421;-74
2022/08/19 14:12:33;;;;;;;33.67;28.13;;;21.40;99.90;;;;;;4936865;29;20207;-70
2022/08/19 14:14:59;;;;;;;44.97;28.87;;;21.50;99.90;;;;;;4931730;29;20456;-73
2022/08/19 14:17:25;;;;;;;32.80;28.87;;;21.50;99.90;;;;;;4935356;29;21061;-74
2022/08/19 14:19:58;;;;;;;33.60;27.30;;;21.50;99.90;;;;;;4929943;29;20474;-74
2022/08/19 14:22:24;;;;;;;33.13;26.60;;;21.50;99.90;;;;;;4934101;29;20546;-74
2022/08/19 14:24:50;;;;;;;27.80;23.30;;;21.60;99.90;;;;;;4941587;29;20441;-73